createdAt,value
2018-08-04T00:01:06.084Z,21.2
2018-08-04T00:11:05.329Z,20.9
2018-08-04T00:21:04.565Z,20.9
2018-08-04T00:31:03.810Z,20.8
2018-08-04T00:41:03.050Z,20.7
2018-08-04T00:51:02.291Z,20.6
2018-08-04T01:01:01.530Z,20.6
2018-08-04T01:11:00.773Z,20.5
2018-08-04T01:21:00.014Z,20.3
2018-08-04T01:30:59.253Z,20.2
2018-08-04T01:40:58.496Z,20.1
2018-08-04T01:50:57.785Z,20.1
2018-08-04T02:00:56.982Z,20.1
2018-08-04T02:10:56.222Z,20
2018-08-04T02:20:55.455Z,19.9
2018-08-04T02:30:54.695Z,19.9
2018-08-04T02:40:53.934Z,19.9
2018-08-04T02:50:53.175Z,19.9
2018-08-04T03:00:52.416Z,19.9
2018-08-04T03:10:51.657Z,19.6
2018-08-04T03:20:50.898Z,19.6
2018-08-04T03:30:50.146Z,19.5
2018-08-04T03:40:49.374Z,19.6
2018-08-04T03:50:48.619Z,19.8
2018-08-04T04:00:47.854Z,20.3
2018-08-04T04:10:47.093Z,20.3
2018-08-04T04:20:46.330Z,20.3
2018-08-04T04:30:45.578Z,21
2018-08-04T04:40:44.811Z,22.1
2018-08-04T04:50:44.050Z,23
2018-08-04T05:00:43.289Z,23.9
2018-08-04T05:10:42.537Z,24.3
2018-08-04T05:20:41.771Z,24.8
2018-08-04T05:30:41.011Z,25.3
2018-08-04T05:40:40.254Z,25.9
2018-08-04T05:50:39.496Z,26.4
2018-08-04T06:00:38.779Z,27.1
2018-08-04T06:10:37.978Z,27.7
2018-08-04T06:20:37.219Z,28.3
2018-08-04T06:30:36.477Z,28.6
2018-08-04T06:40:35.701Z,28.8
2018-08-04T06:50:34.942Z,29
2018-08-04T07:00:34.185Z,29.1
2018-08-04T07:10:33.426Z,29.4
2018-08-04T07:20:32.669Z,29.6
2018-08-04T07:30:31.911Z,29.6
2018-08-04T07:40:31.182Z,30.1
2018-08-04T07:50:30.399Z,30.1
2018-08-04T08:00:29.642Z,29.9
2018-08-04T08:10:29.044Z,30.1
2018-08-04T08:20:28.129Z,29.9
2018-08-04T08:30:27.373Z,29.8
2018-08-04T08:40:26.732Z,30
2018-08-04T08:50:25.851Z,30.2
2018-08-04T09:00:25.093Z,29.8
2018-08-04T09:10:24.341Z,29.9
2018-08-04T09:20:23.627Z,29.6
2018-08-04T09:30:22.819Z,29.1
2018-08-04T09:40:22.059Z,29.1
2018-08-04T09:50:21.301Z,28.9
2018-08-04T10:00:20.549Z,29.1
2018-08-04T10:10:19.782Z,29.5
2018-08-04T10:20:19.072Z,29.1
2018-08-04T10:30:18.264Z,29.3
2018-08-04T10:40:17.501Z,29.4
2018-08-04T10:50:16.744Z,29.1
2018-08-04T11:00:15.982Z,28.8
2018-08-04T11:10:15.224Z,28.3
2018-08-04T11:20:14.467Z,27.9
2018-08-04T11:30:13.709Z,27.6
2018-08-04T11:40:12.950Z,27.1
2018-08-04T11:50:12.192Z,26.5
2018-08-04T12:00:11.432Z,26.6
2018-08-04T12:10:10.674Z,26.8
2018-08-04T12:20:09.917Z,26.9
2018-08-04T12:30:09.158Z,27
2018-08-04T12:40:08.400Z,26.8
2018-08-04T12:50:07.642Z,26.8
2018-08-04T13:00:06.882Z,26.8
2018-08-04T13:10:06.126Z,26.9
2018-08-04T13:20:05.372Z,26.6
2018-08-04T13:30:04.606Z,26.5
2018-08-04T13:40:03.896Z,26.4
2018-08-04T13:50:03.092Z,26.4
2018-08-04T14:00:02.329Z,26.2
2018-08-04T14:10:01.571Z,26.3
2018-08-04T14:20:00.811Z,26.3
2018-08-04T14:30:00.071Z,26.2
2018-08-04T14:39:59.295Z,26.2
2018-08-04T14:49:58.543Z,26.1
2018-08-04T14:59:57.786Z,26.1
2018-08-04T15:09:57.027Z,26.2
2018-08-04T15:19:56.265Z,26.3
2018-08-04T15:29:55.508Z,26.3
2018-08-04T15:39:54.750Z,26.1
2018-08-04T15:49:53.992Z,26
2018-08-04T15:59:53.237Z,25.9
2018-08-04T16:09:52.478Z,25.9
2018-08-04T16:19:51.729Z,25.8
2018-08-04T16:29:50.966Z,25.8
2018-08-04T16:39:50.209Z,25.6
2018-08-04T16:49:49.459Z,25.4
2018-08-04T16:59:48.701Z,25.3
2018-08-04T17:09:47.950Z,25
2018-08-04T17:19:47.187Z,24.8
2018-08-04T17:29:46.431Z,24.6
2018-08-04T17:39:45.679Z,24.4
2018-08-04T17:49:44.920Z,24.1
2018-08-04T17:59:44.167Z,24
2018-08-04T18:09:43.417Z,23.9
2018-08-04T18:19:42.658Z,23.8
2018-08-04T18:29:41.988Z,23.6
2018-08-04T18:39:41.150Z,23.6
2018-08-04T18:49:40.390Z,23.4
2018-08-04T18:59:39.640Z,23.2
2018-08-04T19:09:38.877Z,23
2018-08-04T19:19:38.123Z,22.8
2018-08-04T19:29:37.371Z,22.6
2018-08-04T19:39:36.611Z,22.4
2018-08-04T19:49:35.854Z,22.3
2018-08-04T19:59:35.098Z,22.1
2018-08-04T20:09:34.392Z,22
2018-08-04T20:19:33.588Z,22
2018-08-04T20:29:32.903Z,22
2018-08-04T20:39:32.071Z,21.9
2018-08-04T20:49:31.319Z,22
2018-08-04T20:59:30.559Z,22
2018-08-04T21:09:29.801Z,22
2018-08-04T21:19:29.047Z,22
2018-08-04T21:29:28.285Z,22
2018-08-04T21:39:27.536Z,22
2018-08-04T21:49:26.811Z,21.8
2018-08-04T21:59:26.018Z,21.7
2018-08-04T22:09:25.261Z,21.6
2018-08-04T22:19:24.496Z,21.4
2018-08-04T22:29:23.734Z,21.2
2018-08-04T22:39:22.978Z,21.1
2018-08-04T22:49:22.216Z,20.9
2018-08-04T22:59:21.466Z,20.9
2018-08-04T23:09:20.699Z,20.8
2018-08-04T23:19:19.939Z,20.8
2018-08-04T23:29:19.180Z,20.6
2018-08-04T23:39:18.422Z,20.6
2018-08-04T23:49:17.669Z,20.5
2018-08-04T23:59:16.906Z,20.3
